sensor_id;sensor_type;location;lat;lon;timestamp;temperature;humidity
5280;DHT22;2663;53.588;10.010;2022-10-16T00:01:13;15.50;99.90
5280;DHT22;2663;53.588;10.010;2022-10-16T00:03:41;15.50;99.90
5280;DHT22;2663;53.588;10.010;2022-10-16T00:06:09;15.50;99.90
5280;DHT22;2663;53.588;10.010;2022-10-16T00:08:36;15.60;99.90
5280;DHT22;2663;53.588;10.010;2022-10-16T00:11:05;15.60;99.90
5280;DHT22;2663;53.588;10.010;2022-10-16T00:13:33;15.60;99.90
5280;DHT22;2663;53.588;10.010;2022-10-16T00:16:01;15.50;99.90
5280;DHT22;2663;53.588;10.010;2022-10-16T00:18:29;15.50;99.90
5280;DHT22;2663;53.588;10.010;2022-10-16T00:21:02;15.50;99.90
5280;DHT22;2663;53.588;10.010;2022-10-16T00:23:29;15.50;99.90
5280;DHT22;2663;53.588;10.010;2022-10-16T00:25:57;15.50;99.90
5280;DHT22;2663;53.588;10.010;2022-10-16T00:28:24;15.50;99.90
5280;DHT22;2663;53.588;10.010;2022-10-16T00:30:51;15.50;99.90
5280;DHT22;2663;53.588;10.010;2022-10-16T00:33:18;15.50;99.90
5280;DHT22;2663;53.588;10.010;2022-10-16T00:35:45;15.40;99.90
5280;DHT22;2663;53.588;10.010;2022-10-16T00:38:12;15.50;99.90
5280;DHT22;2663;53.588;10.010;2022-10-16T00:40:39;15.50;99.90
5280;DHT22;2663;53.588;10.010;2022-10-16T00:43:32;15.50;99.90
5280;DHT22;2663;53.588;10.010;2022-10-16T00:46:08;15.60;99.90
5280;DHT22;2663;53.588;10.010;2022-10-16T00:48:36;15.60;99.90
5280;DHT22;2663;53.588;10.010;2022-10-16T00:51:04;15.60;99.90
5280;DHT22;2663;53.588;10.010;2022-10-16T00:53:31;15.70;99.90
5280;DHT22;2663;53.588;10.010;2022-10-16T00:55:57;15.60;99.90
5280;DHT22;2663;53.588;10.010;2022-10-16T00:58:24;15.60;99.90
5280;DHT22;2663;53.588;10.010;2022-10-16T01:00:51;15.60;99.90
5280;DHT22;2663;53.588;10.010;2022-10-16T01:03:34;15.60;99.90
5280;DHT22;2663;53.588;10.010;2022-10-16T01:06:10;15.60;99.90
5280;DHT22;2663;53.588;10.010;2022-10-16T01:08:45;15.60;99.90
5280;DHT22;2663;53.588;10.010;2022-10-16T01:13:57;15.60;99.90
5280;DHT22;2663;53.588;10.010;2022-10-16T01:16:36;15.50;99.90
5280;DHT22;2663;53.588;10.010;2022-10-16T01:19:12;15.50;99.90
5280;DHT22;2663;53.588;10.010;2022-10-16T01:21:43;15.50;99.90
5280;DHT22;2663;53.588;10.010;2022-10-16T01:34:49;15.40;99.90
5280;DHT22;2663;53.588;10.010;2022-10-16T01:37:27;15.40;99.90
5280;DHT22;2663;53.588;10.010;2022-10-16T01:39:58;15.40;99.90
5280;DHT22;2663;53.588;10.010;2022-10-16T01:42:33;15.40;99.90
5280;DHT22;2663;53.588;10.010;2022-10-16T01:45:01;15.30;99.90
5280;DHT22;2663;53.588;10.010;2022-10-16T01:47:30;15.30;99.90
5280;DHT22;2663;53.588;10.010;2022-10-16T01:49:58;15.30;99.90
5280;DHT22;2663;53.588;10.010;2022-10-16T01:52:27;15.30;99.90
5280;DHT22;2663;53.588;10.010;2022-10-16T01:54:56;15.20;99.90
5280;DHT22;2663;53.588;10.010;2022-10-16T01:57:24;16.00;99.90
5280;DHT22;2663;53.588;10.010;2022-10-16T01:59:54;15.20;99.90
5280;DHT22;2663;53.588;10.010;2022-10-16T02:02:22;15.20;99.90
5280;DHT22;2663;53.588;10.010;2022-10-16T02:04:57;15.30;99.90
5280;DHT22;2663;53.588;10.010;2022-10-16T02:07:24;15.20;99.90
5280;DHT22;2663;53.588;10.010;2022-10-16T02:09:51;15.10;99.90
5280;DHT22;2663;53.588;10.010;2022-10-16T02:12:27;15.10;99.90
5280;DHT22;2663;53.588;10.010;2022-10-16T02:14:55;15.10;99.90
5280;DHT22;2663;53.588;10.010;2022-10-16T02:17:22;15.10;99.90
5280;DHT22;2663;53.588;10.010;2022-10-16T02:19:51;15.10;99.90
5280;DHT22;2663;53.588;10.010;2022-10-16T02:25:04;15.10;99.90
5280;DHT22;2663;53.588;10.010;2022-10-16T02:27:38;15.10;99.90
5280;DHT22;2663;53.588;10.010;2022-10-16T02:32:48;15.10;99.90
5280;DHT22;2663;53.588;10.010;2022-10-16T02:35:18;15.00;99.90
5280;DHT22;2663;53.588;10.010;2022-10-16T02:37:46;15.00;99.90
5280;DHT22;2663;53.588;10.010;2022-10-16T02:40:13;14.90;99.90
5280;DHT22;2663;53.588;10.010;2022-10-16T02:42:41;14.90;99.90
5280;DHT22;2663;53.588;10.010;2022-10-16T02:45:09;14.90;99.90
5280;DHT22;2663;53.588;10.010;2022-10-16T02:47:36;14.90;99.90
5280;DHT22;2663;53.588;10.010;2022-10-16T02:50:04;14.90;99.90
5280;DHT22;2663;53.588;10.010;2022-10-16T02:52:31;14.90;99.90
5280;DHT22;2663;53.588;10.010;2022-10-16T02:54:57;14.90;99.90
5280;DHT22;2663;53.588;10.010;2022-10-16T02:57:24;14.80;99.90
5280;DHT22;2663;53.588;10.010;2022-10-16T02:59:51;14.80;99.90
5280;DHT22;2663;53.588;10.010;2022-10-16T03:02:18;14.80;99.90
5280;DHT22;2663;53.588;10.010;2022-10-16T03:04:45;14.80;99.90
5280;DHT22;2663;53.588;10.010;2022-10-16T03:07:11;14.80;99.90
5280;DHT22;2663;53.588;10.010;2022-10-16T03:09:38;14.80;99.90
5280;DHT22;2663;53.588;10.010;2022-10-16T03:12:05;14.90;99.90
5280;DHT22;2663;53.588;10.010;2022-10-16T03:14:31;14.80;99.90
5280;DHT22;2663;53.588;10.010;2022-10-16T03:16:58;14.80;99.90
5280;DHT22;2663;53.588;10.010;2022-10-16T03:19:25;14.80;99.90
5280;DHT22;2663;53.588;10.010;2022-10-16T03:21:51;14.80;99.90
5280;DHT22;2663;53.588;10.010;2022-10-16T03:24:18;14.80;99.90
5280;DHT22;2663;53.588;10.010;2022-10-16T03:26:45;14.90;99.90
5280;DHT22;2663;53.588;10.010;2022-10-16T03:29:11;14.90;99.90
5280;DHT22;2663;53.588;10.010;2022-10-16T03:31:38;14.80;99.90
5280;DHT22;2663;53.588;10.010;2022-10-16T03:34:04;14.80;99.90
5280;DHT22;2663;53.588;10.010;2022-10-16T03:36:31;14.80;99.90
5280;DHT22;2663;53.588;10.010;2022-10-16T03:38:58;14.80;99.90
5280;DHT22;2663;53.588;10.010;2022-10-16T03:41:24;14.80;99.90
5280;DHT22;2663;53.588;10.010;2022-10-16T03:43:51;14.70;99.90
5280;DHT22;2663;53.588;10.010;2022-10-16T03:46:17;14.70;99.90
5280;DHT22;2663;53.588;10.010;2022-10-16T03:48:44;14.70;99.90
5280;DHT22;2663;53.588;10.010;2022-10-16T03:51:11;14.70;99.90
5280;DHT22;2663;53.588;10.010;2022-10-16T03:53:37;14.70;99.90
5280;DHT22;2663;53.588;10.010;2022-10-16T03:56:04;14.60;99.90
5280;DHT22;2663;53.588;10.010;2022-10-16T03:58:31;14.60;99.90
5280;DHT22;2663;53.588;10.010;2022-10-16T04:00:57;14.60;99.90
5280;DHT22;2663;53.588;10.010;2022-10-16T04:03:24;14.60;99.90
5280;DHT22;2663;53.588;10.010;2022-10-16T04:05:51;14.70;99.90
5280;DHT22;2663;53.588;10.010;2022-10-16T04:08:17;14.70;99.90
5280;DHT22;2663;53.588;10.010;2022-10-16T04:10:44;14.60;99.90
5280;DHT22;2663;53.588;10.010;2022-10-16T04:13:12;14.60;99.90
5280;DHT22;2663;53.588;10.010;2022-10-16T04:15:38;14.60;99.90
5280;DHT22;2663;53.588;10.010;2022-10-16T04:18:05;14.60;99.90
5280;DHT22;2663;53.588;10.010;2022-10-16T04:20:33;14.50;99.90
5280;DHT22;2663;53.588;10.010;2022-10-16T04:23:00;14.60;99.90
5280;DHT22;2663;53.588;10.010;2022-10-16T04:25:26;14.60;99.90
5280;DHT22;2663;53.588;10.010;2022-10-16T04:27:53;14.70;99.90
5280;DHT22;2663;53.588;10.010;2022-10-16T04:30:21;14.60;99.90
5280;DHT22;2663;53.588;10.010;2022-10-16T04:32:49;14.50;99.90
5280;DHT22;2663;53.588;10.010;2022-10-16T04:35:17;14.60;99.90
5280;DHT22;2663;53.588;10.010;2022-10-16T04:37:44;14.60;99.90
5280;DHT22;2663;53.588;10.010;2022-10-16T04:40:11;14.60;99.90
5280;DHT22;2663;53.588;10.010;2022-10-16T04:42:38;14.60;99.90
5280;DHT22;2663;53.588;10.010;2022-10-16T04:45:05;14.60;99.90
5280;DHT22;2663;53.588;10.010;2022-10-16T04:47:32;14.60;99.90
5280;DHT22;2663;53.588;10.010;2022-10-16T04:49:58;14.60;99.90
5280;DHT22;2663;53.588;10.010;2022-10-16T04:52:28;14.70;99.90
5280;DHT22;2663;53.588;10.010;2022-10-16T04:54:55;14.60;99.90
5280;DHT22;2663;53.588;10.010;2022-10-16T04:57:27;14.60;99.90
5280;DHT22;2663;53.588;10.010;2022-10-16T04:59:54;14.60;99.90
5280;DHT22;2663;53.588;10.010;2022-10-16T05:02:20;14.60;99.90
5280;DHT22;2663;53.588;10.010;2022-10-16T05:04:47;14.60;99.90
5280;DHT22;2663;53.588;10.010;2022-10-16T05:07:14;14.60;99.90
5280;DHT22;2663;53.588;10.010;2022-10-16T05:09:40;14.50;99.90
5280;DHT22;2663;53.588;10.010;2022-10-16T05:12:07;14.50;99.90
5280;DHT22;2663;53.588;10.010;2022-10-16T05:14:34;14.60;99.90
5280;DHT22;2663;53.588;10.010;2022-10-16T05:17:00;14.60;99.90
5280;DHT22;2663;53.588;10.010;2022-10-16T05:19:27;14.60;99.90
5280;DHT22;2663;53.588;10.010;2022-10-16T05:21:55;14.60;99.90
5280;DHT22;2663;53.588;10.010;2022-10-16T05:24:21;14.50;99.90
5280;DHT22;2663;53.588;10.010;2022-10-16T05:26:48;14.50;99.90
5280;DHT22;2663;53.588;10.010;2022-10-16T05:29:15;14.60;99.90
5280;DHT22;2663;53.588;10.010;2022-10-16T05:31:42;14.60;99.90
5280;DHT22;2663;53.588;10.010;2022-10-16T05:34:09;14.60;99.90
5280;DHT22;2663;53.588;10.010;2022-10-16T05:36:36;14.60;99.90
5280;DHT22;2663;53.588;10.010;2022-10-16T05:39:03;14.60;99.90
5280;DHT22;2663;53.588;10.010;2022-10-16T05:41:29;14.60;99.90
5280;DHT22;2663;53.588;10.010;2022-10-16T05:43:56;14.60;99.90
5280;DHT22;2663;53.588;10.010;2022-10-16T05:46:23;14.70;99.90
5280;DHT22;2663;53.588;10.010;2022-10-16T05:48:52;14.60;99.90
5280;DHT22;2663;53.588;10.010;2022-10-16T05:51:19;14.60;99.90
5280;DHT22;2663;53.588;10.010;2022-10-16T05:53:46;14.60;99.90
5280;DHT22;2663;53.588;10.010;2022-10-16T05:56:13;14.60;99.90
5280;DHT22;2663;53.588;10.010;2022-10-16T05:58:39;14.80;99.90
5280;DHT22;2663;53.588;10.010;2022-10-16T06:01:16;14.60;99.90
5280;DHT22;2663;53.588;10.010;2022-10-16T06:03:44;14.70;99.90
5280;DHT22;2663;53.588;10.010;2022-10-16T06:06:12;14.70;99.90
5280;DHT22;2663;53.588;10.010;2022-10-16T06:08:40;14.70;99.90
5280;DHT22;2663;53.588;10.010;2022-10-16T06:11:10;14.80;99.90
5280;DHT22;2663;53.588;10.010;2022-10-16T06:13:37;14.80;99.90
5280;DHT22;2663;53.588;10.010;2022-10-16T06:16:05;14.80;99.90
5280;DHT22;2663;53.588;10.010;2022-10-16T06:18:32;14.80;99.90
5280;DHT22;2663;53.588;10.010;2022-10-16T06:20:59;14.80;99.90
5280;DHT22;2663;53.588;10.010;2022-10-16T06:23:28;14.80;99.90
5280;DHT22;2663;53.588;10.010;2022-10-16T06:26:10;14.90;99.90
5280;DHT22;2663;53.588;10.010;2022-10-16T06:28:38;15.70;99.90
5280;DHT22;2663;53.588;10.010;2022-10-16T06:31:07;16.30;99.90
5280;DHT22;2663;53.588;10.010;2022-10-16T06:33:35;16.40;99.90
5280;DHT22;2663;53.588;10.010;2022-10-16T06:36:04;16.60;99.90
5280;DHT22;2663;53.588;10.010;2022-10-16T06:38:31;16.60;99.90
5280;DHT22;2663;53.588;10.010;2022-10-16T06:40:58;16.80;99.90
5280;DHT22;2663;53.588;10.010;2022-10-16T06:43:26;16.80;99.90
5280;DHT22;2663;53.588;10.010;2022-10-16T06:45:56;16.50;99.90
5280;DHT22;2663;53.588;10.010;2022-10-16T06:48:24;16.00;99.90
5280;DHT22;2663;53.588;10.010;2022-10-16T06:51:06;15.80;99.90
5280;DHT22;2663;53.588;10.010;2022-10-16T06:53:36;16.40;99.90
5280;DHT22;2663;53.588;10.010;2022-10-16T06:56:18;16.20;99.90
5280;DHT22;2663;53.588;10.010;2022-10-16T06:58:45;15.90;99.90
5280;DHT22;2663;53.588;10.010;2022-10-16T07:01:13;15.60;99.90
5280;DHT22;2663;53.588;10.010;2022-10-16T07:03:41;15.40;99.90
5280;DHT22;2663;53.588;10.010;2022-10-16T07:06:09;15.70;99.90
5280;DHT22;2663;53.588;10.010;2022-10-16T07:08:38;16.10;99.90
5280;DHT22;2663;53.588;10.010;2022-10-16T07:11:08;16.50;99.90
5280;DHT22;2663;53.588;10.010;2022-10-16T07:13:36;16.40;99.90
5280;DHT22;2663;53.588;10.010;2022-10-16T07:16:14;16.10;99.90
5280;DHT22;2663;53.588;10.010;2022-10-16T07:18:42;15.80;99.90
5280;DHT22;2663;53.588;10.010;2022-10-16T07:21:20;15.60;99.90
5280;DHT22;2663;53.588;10.010;2022-10-16T07:23:54;15.70;99.90
5280;DHT22;2663;53.588;10.010;2022-10-16T07:26:22;15.60;99.90
5280;DHT22;2663;53.588;10.010;2022-10-16T07:28:48;15.80;99.90
5280;DHT22;2663;53.588;10.010;2022-10-16T07:31:18;16.10;99.90
5280;DHT22;2663;53.588;10.010;2022-10-16T07:33:46;16.20;99.90
5280;DHT22;2663;53.588;10.010;2022-10-16T07:36:16;16.30;99.90
5280;DHT22;2663;53.588;10.010;2022-10-16T07:38:44;16.30;99.90
5280;DHT22;2663;53.588;10.010;2022-10-16T07:41:12;16.00;99.90
5280;DHT22;2663;53.588;10.010;2022-10-16T07:43:40;15.90;99.90
5280;DHT22;2663;53.588;10.010;2022-10-16T07:46:06;15.70;99.90
5280;DHT22;2663;53.588;10.010;2022-10-16T07:48:34;15.50;99.90
5280;DHT22;2663;53.588;10.010;2022-10-16T07:51:05;15.60;99.90
5280;DHT22;2663;53.588;10.010;2022-10-16T07:53:33;15.60;99.90
5280;DHT22;2663;53.588;10.010;2022-10-16T07:56:05;15.50;99.90
5280;DHT22;2663;53.588;10.010;2022-10-16T07:58:33;15.60;99.90
5280;DHT22;2663;53.588;10.010;2022-10-16T08:01:04;15.50;99.90
5280;DHT22;2663;53.588;10.010;2022-10-16T08:03:31;15.40;99.90
5280;DHT22;2663;53.588;10.010;2022-10-16T08:05:58;15.50;99.90
5280;DHT22;2663;53.588;10.010;2022-10-16T08:08:26;15.50;99.90
5280;DHT22;2663;53.588;10.010;2022-10-16T08:10:53;15.40;99.90
5280;DHT22;2663;53.588;10.010;2022-10-16T08:13:20;15.50;99.90
5280;DHT22;2663;53.588;10.010;2022-10-16T08:15:47;15.40;99.90
5280;DHT22;2663;53.588;10.010;2022-10-16T08:18:14;15.50;99.90
5280;DHT22;2663;53.588;10.010;2022-10-16T08:20:42;15.50;99.90
5280;DHT22;2663;53.588;10.010;2022-10-16T08:23:10;15.40;99.90
5280;DHT22;2663;53.588;10.010;2022-10-16T08:25:38;15.40;99.90
5280;DHT22;2663;53.588;10.010;2022-10-16T08:28:06;15.40;99.90
5280;DHT22;2663;53.588;10.010;2022-10-16T08:30:33;15.50;99.90
5280;DHT22;2663;53.588;10.010;2022-10-16T08:33:00;15.50;99.90
5280;DHT22;2663;53.588;10.010;2022-10-16T08:35:27;15.60;99.90
5280;DHT22;2663;53.588;10.010;2022-10-16T08:37:54;15.70;99.90
5280;DHT22;2663;53.588;10.010;2022-10-16T08:40:27;15.90;99.90
5280;DHT22;2663;53.588;10.010;2022-10-16T08:45:46;16.00;99.90
5280;DHT22;2663;53.588;10.010;2022-10-16T08:50:48;15.90;99.90
5280;DHT22;2663;53.588;10.010;2022-10-16T08:53:27;15.90;99.90
5280;DHT22;2663;53.588;10.010;2022-10-16T08:55:55;15.90;99.90
5280;DHT22;2663;53.588;10.010;2022-10-16T08:58:25;15.90;99.90
5280;DHT22;2663;53.588;10.010;2022-10-16T09:00:58;15.90;99.90
5280;DHT22;2663;53.588;10.010;2022-10-16T09:06:35;15.90;99.90
5280;DHT22;2663;53.588;10.010;2022-10-16T09:09:15;16.00;99.90
5280;DHT22;2663;53.588;10.010;2022-10-16T09:14:53;16.90;99.90
5280;DHT22;2663;53.588;10.010;2022-10-16T09:19:55;16.20;99.90
5280;DHT22;2663;53.588;10.010;2022-10-16T09:22:27;16.30;99.90
5280;DHT22;2663;53.588;10.010;2022-10-16T09:24:59;16.30;99.90
5280;DHT22;2663;53.588;10.010;2022-10-16T09:27:26;16.30;99.90
5280;DHT22;2663;53.588;10.010;2022-10-16T09:29:54;16.40;99.90
5280;DHT22;2663;53.588;10.010;2022-10-16T09:32:25;16.50;99.90
5280;DHT22;2663;53.588;10.010;2022-10-16T09:34:54;16.50;99.90
5280;DHT22;2663;53.588;10.010;2022-10-16T09:37:23;16.60;99.90
5280;DHT22;2663;53.588;10.010;2022-10-16T09:39:53;16.60;99.90
5280;DHT22;2663;53.588;10.010;2022-10-16T09:42:30;16.60;99.90
5280;DHT22;2663;53.588;10.010;2022-10-16T09:44:57;16.70;99.90
5280;DHT22;2663;53.588;10.010;2022-10-16T09:47:26;16.80;99.90
5280;DHT22;2663;53.588;10.010;2022-10-16T09:49:58;16.80;99.90
5280;DHT22;2663;53.588;10.010;2022-10-16T09:52:29;17.00;99.90
5280;DHT22;2663;53.588;10.010;2022-10-16T09:55:01;17.00;99.90
5280;DHT22;2663;53.588;10.010;2022-10-16T09:57:28;17.00;99.90
5280;DHT22;2663;53.588;10.010;2022-10-16T09:59:57;16.90;99.90
5280;DHT22;2663;53.588;10.010;2022-10-16T10:02:35;16.90;99.90
5280;DHT22;2663;53.588;10.010;2022-10-16T10:05:04;16.90;99.90
5280;DHT22;2663;53.588;10.010;2022-10-16T10:07:39;16.90;99.90
5280;DHT22;2663;53.588;10.010;2022-10-16T10:10:30;17.00;99.90
5280;DHT22;2663;53.588;10.010;2022-10-16T10:12:57;17.00;99.90
5280;DHT22;2663;53.588;10.010;2022-10-16T10:15:24;17.00;99.90
5280;DHT22;2663;53.588;10.010;2022-10-16T10:17:54;17.00;99.90
5280;DHT22;2663;53.588;10.010;2022-10-16T10:20:31;16.90;99.90
5280;DHT22;2663;53.588;10.010;2022-10-16T10:23:22;16.90;99.90
5280;DHT22;2663;53.588;10.010;2022-10-16T10:25:59;16.90;99.90
5280;DHT22;2663;53.588;10.010;2022-10-16T10:34:35;17.00;99.90
5280;DHT22;2663;53.588;10.010;2022-10-16T10:40:40;17.10;99.90
5280;DHT22;2663;53.588;10.010;2022-10-16T10:43:54;17.20;99.90
5280;DHT22;2663;53.588;10.010;2022-10-16T10:46:04;17.30;99.90
5280;DHT22;2663;53.588;10.010;2022-10-16T10:48:52;17.30;99.90
5280;DHT22;2663;53.588;10.010;2022-10-16T10:51:44;17.40;99.90
5280;DHT22;2663;53.588;10.010;2022-10-16T10:54:28;17.40;99.90
5280;DHT22;2663;53.588;10.010;2022-10-16T11:00:13;17.60;99.30
5280;DHT22;2663;53.588;10.010;2022-10-16T11:03:08;17.60;98.90
5280;DHT22;2663;53.588;10.010;2022-10-16T11:05:44;17.60;98.40
5280;DHT22;2663;53.588;10.010;2022-10-16T11:08:32;17.50;98.10
5280;DHT22;2663;53.588;10.010;2022-10-16T11:14:00;17.70;98.20
5280;DHT22;2663;53.588;10.010;2022-10-16T11:16:34;17.70;98.00
5280;DHT22;2663;53.588;10.010;2022-10-16T11:19:28;17.80;98.10
5280;DHT22;2663;53.588;10.010;2022-10-16T11:24:55;17.90;97.50
5280;DHT22;2663;53.588;10.010;2022-10-16T11:27:49;17.90;97.50
5280;DHT22;2663;53.588;10.010;2022-10-16T11:30:25;17.90;97.50
5280;DHT22;2663;53.588;10.010;2022-10-16T11:38:14;18.00;96.80
5280;DHT22;2663;53.588;10.010;2022-10-16T11:40:43;19.60;97.10
5280;DHT22;2663;53.588;10.010;2022-10-16T11:43:22;18.00;96.60
5280;DHT22;2663;53.588;10.010;2022-10-16T11:45:54;18.00;96.70
5280;DHT22;2663;53.588;10.010;2022-10-16T11:50:57;17.90;96.80
5280;DHT22;2663;53.588;10.010;2022-10-16T11:56:06;17.80;97.40
5280;DHT22;2663;53.588;10.010;2022-10-16T11:58:37;17.90;97.40
5280;DHT22;2663;53.588;10.010;2022-10-16T12:04:23;17.80;96.20
5280;DHT22;2663;53.588;10.010;2022-10-16T12:07:07;17.70;95.90
5280;DHT22;2663;53.588;10.010;2022-10-16T12:09:37;17.60;96.60
5280;DHT22;2663;53.588;10.010;2022-10-16T12:12:05;17.70;96.60
5280;DHT22;2663;53.588;10.010;2022-10-16T12:15:15;17.60;96.40
5280;DHT22;2663;53.588;10.010;2022-10-16T12:17:56;17.70;96.50
5280;DHT22;2663;53.588;10.010;2022-10-16T12:20:26;17.60;96.60
5280;DHT22;2663;53.588;10.010;2022-10-16T12:23:02;17.70;96.20
5280;DHT22;2663;53.588;10.010;2022-10-16T12:25:38;17.90;96.20
5280;DHT22;2663;53.588;10.010;2022-10-16T12:30:43;18.10;96.00
5280;DHT22;2663;53.588;10.010;2022-10-16T12:33:25;18.20;95.80
5280;DHT22;2663;53.588;10.010;2022-10-16T12:35:53;18.20;95.50
5280;DHT22;2663;53.588;10.010;2022-10-16T12:38:30;18.30;95.40
5280;DHT22;2663;53.588;10.010;2022-10-16T12:41:03;18.20;95.30
5280;DHT22;2663;53.588;10.010;2022-10-16T12:43:42;18.20;95.20
5280;DHT22;2663;53.588;10.010;2022-10-16T12:48:37;18.30;95.10
5280;DHT22;2663;53.588;10.010;2022-10-16T12:54:30;18.40;94.30
5280;DHT22;2663;53.588;10.010;2022-10-16T12:57:09;18.40;93.70
5280;DHT22;2663;53.588;10.010;2022-10-16T12:59:59;18.50;94.10
5280;DHT22;2663;53.588;10.010;2022-10-16T13:08:23;18.70;94.30
5280;DHT22;2663;53.588;10.010;2022-10-16T13:11:15;18.70;93.90
5280;DHT22;2663;53.588;10.010;2022-10-16T13:14:22;18.70;93.80
5280;DHT22;2663;53.588;10.010;2022-10-16T13:20:00;18.50;93.40
5280;DHT22;2663;53.588;10.010;2022-10-16T13:22:45;18.60;93.50
5280;DHT22;2663;53.588;10.010;2022-10-16T13:27:59;18.40;93.00
5280;DHT22;2663;53.588;10.010;2022-10-16T13:30:30;18.40;93.10
5280;DHT22;2663;53.588;10.010;2022-10-16T13:35:55;18.40;93.40
5280;DHT22;2663;53.588;10.010;2022-10-16T13:38:30;18.50;93.40
5280;DHT22;2663;53.588;10.010;2022-10-16T13:41:12;18.50;93.60
5280;DHT22;2663;53.588;10.010;2022-10-16T13:43:42;18.50;93.80
5280;DHT22;2663;53.588;10.010;2022-10-16T13:46:17;18.50;93.80
5280;DHT22;2663;53.588;10.010;2022-10-16T13:48:56;18.30;94.00
5280;DHT22;2663;53.588;10.010;2022-10-16T13:51:22;18.30;94.00
5280;DHT22;2663;53.588;10.010;2022-10-16T13:53:55;18.20;94.10
5280;DHT22;2663;53.588;10.010;2022-10-16T13:56:27;18.30;94.10
5280;DHT22;2663;53.588;10.010;2022-10-16T13:59:05;18.20;94.30
5280;DHT22;2663;53.588;10.010;2022-10-16T14:01:41;18.20;94.10
5280;DHT22;2663;53.588;10.010;2022-10-16T14:04:11;18.20;93.70
5280;DHT22;2663;53.588;10.010;2022-10-16T14:06:43;18.20;93.50
5280;DHT22;2663;53.588;10.010;2022-10-16T14:09:25;18.30;93.30
5280;DHT22;2663;53.588;10.010;2022-10-16T14:11:55;18.30;93.00
5280;DHT22;2663;53.588;10.010;2022-10-16T14:14:23;18.40;92.80
5280;DHT22;2663;53.588;10.010;2022-10-16T14:16:51;18.40;92.80
5280;DHT22;2663;53.588;10.010;2022-10-16T14:19:24;18.40;92.70
5280;DHT22;2663;53.588;10.010;2022-10-16T14:21:51;18.40;92.70
5280;DHT22;2663;53.588;10.010;2022-10-16T14:24:26;18.40;92.80
5280;DHT22;2663;53.588;10.010;2022-10-16T14:26:53;18.40;93.00
5280;DHT22;2663;53.588;10.010;2022-10-16T14:29:23;18.40;93.00
5280;DHT22;2663;53.588;10.010;2022-10-16T14:32:00;18.40;92.90
5280;DHT22;2663;53.588;10.010;2022-10-16T14:37:05;18.40;93.00
5280;DHT22;2663;53.588;10.010;2022-10-16T14:39:39;18.40;93.00
5280;DHT22;2663;53.588;10.010;2022-10-16T14:42:14;18.30;93.10
5280;DHT22;2663;53.588;10.010;2022-10-16T14:44:42;18.20;93.20
5280;DHT22;2663;53.588;10.010;2022-10-16T14:47:13;18.30;93.50
5280;DHT22;2663;53.588;10.010;2022-10-16T14:49:41;18.40;93.50
5280;DHT22;2663;53.588;10.010;2022-10-16T14:52:10;18.40;93.30
5280;DHT22;2663;53.588;10.010;2022-10-16T14:54:37;18.40;93.10
5280;DHT22;2663;53.588;10.010;2022-10-16T14:57:04;18.30;93.00
5280;DHT22;2663;53.588;10.010;2022-10-16T14:59:37;18.30;93.30
5280;DHT22;2663;53.588;10.010;2022-10-16T15:02:43;18.30;93.30
5280;DHT22;2663;53.588;10.010;2022-10-16T15:05:30;18.40;93.30
5280;DHT22;2663;53.588;10.010;2022-10-16T15:07:58;18.30;93.00
5280;DHT22;2663;53.588;10.010;2022-10-16T15:10:27;18.20;93.20
5280;DHT22;2663;53.588;10.010;2022-10-16T15:12:55;18.10;93.40
5280;DHT22;2663;53.588;10.010;2022-10-16T15:15:32;18.20;93.60
5280;DHT22;2663;53.588;10.010;2022-10-16T15:18:00;18.10;93.70
5280;DHT22;2663;53.588;10.010;2022-10-16T15:20:29;18.10;93.70
5280;DHT22;2663;53.588;10.010;2022-10-16T15:22:57;18.00;93.90
5280;DHT22;2663;53.588;10.010;2022-10-16T15:25:37;18.00;93.90
5280;DHT22;2663;53.588;10.010;2022-10-16T15:28:06;18.00;94.10
5280;DHT22;2663;53.588;10.010;2022-10-16T15:30:34;18.00;93.90
5280;DHT22;2663;53.588;10.010;2022-10-16T15:33:01;18.00;94.00
5280;DHT22;2663;53.588;10.010;2022-10-16T15:35:27;17.90;94.10
5280;DHT22;2663;53.588;10.010;2022-10-16T15:37:54;17.80;94.10
5280;DHT22;2663;53.588;10.010;2022-10-16T15:40:21;17.80;94.10
5280;DHT22;2663;53.588;10.010;2022-10-16T15:42:49;17.80;94.20
5280;DHT22;2663;53.588;10.010;2022-10-16T15:45:15;17.70;94.00
5280;DHT22;2663;53.588;10.010;2022-10-16T15:47:42;17.70;94.30
5280;DHT22;2663;53.588;10.010;2022-10-16T15:50:13;17.70;94.40
5280;DHT22;2663;53.588;10.010;2022-10-16T15:52:40;17.70;94.30
5280;DHT22;2663;53.588;10.010;2022-10-16T15:55:12;17.70;94.10
5280;DHT22;2663;53.588;10.010;2022-10-16T15:57:39;17.60;94.20
5280;DHT22;2663;53.588;10.010;2022-10-16T16:00:09;17.50;94.00
5280;DHT22;2663;53.588;10.010;2022-10-16T16:02:36;17.50;94.00
5280;DHT22;2663;53.588;10.010;2022-10-16T16:05:04;17.40;94.10
5280;DHT22;2663;53.588;10.010;2022-10-16T16:07:34;17.30;94.30
5280;DHT22;2663;53.588;10.010;2022-10-16T16:10:03;17.30;94.40
5280;DHT22;2663;53.588;10.010;2022-10-16T16:12:30;17.20;94.50
5280;DHT22;2663;53.588;10.010;2022-10-16T16:14:56;17.40;95.10
5280;DHT22;2663;53.588;10.010;2022-10-16T16:17:30;17.70;95.10
5280;DHT22;2663;53.588;10.010;2022-10-16T16:19:57;17.80;94.30
5280;DHT22;2663;53.588;10.010;2022-10-16T16:22:24;17.80;94.60
5280;DHT22;2663;53.588;10.010;2022-10-16T16:24:51;17.90;94.70
5280;DHT22;2663;53.588;10.010;2022-10-16T16:27:18;17.90;93.70
5280;DHT22;2663;53.588;10.010;2022-10-16T16:29:47;17.80;94.30
5280;DHT22;2663;53.588;10.010;2022-10-16T16:32:14;17.80;93.90
5280;DHT22;2663;53.588;10.010;2022-10-16T16:34:40;17.80;93.80
5280;DHT22;2663;53.588;10.010;2022-10-16T16:37:07;17.70;94.00
5280;DHT22;2663;53.588;10.010;2022-10-16T16:39:34;17.70;94.20
5280;DHT22;2663;53.588;10.010;2022-10-16T16:42:01;17.70;94.20
5280;DHT22;2663;53.588;10.010;2022-10-16T16:44:29;17.50;94.00
5280;DHT22;2663;53.588;10.010;2022-10-16T16:46:56;17.50;94.20
5280;DHT22;2663;53.588;10.010;2022-10-16T16:49:23;17.40;94.80
5280;DHT22;2663;53.588;10.010;2022-10-16T16:51:49;17.30;94.60
5280;DHT22;2663;53.588;10.010;2022-10-16T16:54:16;17.30;94.60
5280;DHT22;2663;53.588;10.010;2022-10-16T16:56:43;17.20;94.50
5280;DHT22;2663;53.588;10.010;2022-10-16T16:59:15;17.10;94.60
5280;DHT22;2663;53.588;10.010;2022-10-16T17:01:44;17.00;94.60
5280;DHT22;2663;53.588;10.010;2022-10-16T17:04:11;17.00;94.70
5280;DHT22;2663;53.588;10.010;2022-10-16T17:06:38;17.00;94.90
5280;DHT22;2663;53.588;10.010;2022-10-16T17:09:05;17.00;95.20
5280;DHT22;2663;53.588;10.010;2022-10-16T17:11:33;17.00;94.70
5280;DHT22;2663;53.588;10.010;2022-10-16T17:14:01;17.00;95.00
5280;DHT22;2663;53.588;10.010;2022-10-16T17:16:31;16.90;95.70
5280;DHT22;2663;53.588;10.010;2022-10-16T17:19:04;16.90;95.90
5280;DHT22;2663;53.588;10.010;2022-10-16T17:21:32;17.00;96.10
5280;DHT22;2663;53.588;10.010;2022-10-16T17:23:59;16.70;96.40
5280;DHT22;2663;53.588;10.010;2022-10-16T17:26:27;16.60;96.60
5280;DHT22;2663;53.588;10.010;2022-10-16T17:29:00;16.60;96.80
5280;DHT22;2663;53.588;10.010;2022-10-16T17:31:29;16.50;96.70
5280;DHT22;2663;53.588;10.010;2022-10-16T17:34:01;16.40;96.90
5280;DHT22;2663;53.588;10.010;2022-10-16T17:36:30;16.40;96.90